• Join FlightAware (Why Join?)
  • Login
  • US Flag 
05:07PM EDT


 

Airport Tracker/Info


-or-


 

Live Flight TrackerFlight Track Log ✈ UAL395 ✈ 17-Jun-2013 ✈ KORD - KSAN

Flight Track Log - Related Links

Times and Time Zones

All times are in EDT time to prevent confusion due to time zone crossing. See the UAL395 flight status page for this flight to view local times or setup timezone preferences in your user account.

Time Position Orientation Groundspeed Altitude Reporting Facility
EDT Latitude Longitude Course Direction KTS MPH feet Rate Location/Type
07:35PM 42.0000 -87.9500 294° West 161 185 1,900  Level Chicago TRACON
07:36PM 42.0167 -88.0000 294° West 172 198 3,200 1,380 Climbing Chicago TRACON
07:37PM 42.0333 -88.0833 285° West 237 273 4,600 1,080 Climbing Chicago TRACON
07:38PM 42.0372 -88.1353 276° West 231 266 5,000 660 Climbing Chicago Center
07:39PM 41.9847 -88.1942 220° Southwest 246 283 5,800 1,560 Climbing Chicago Center
07:40PM 41.9297 -88.2561 220° Southwest 260 299 8,300 2,700 Climbing Chicago Center
07:41PM 41.9217 -88.3792 265° West 285 328 11,400 2,280 Climbing Chicago Center
07:42PM 41.9150 -88.4839 265° West 283 326 13,100 780 Climbing Chicago Center
07:43PM 41.9075 -88.5878 264° West 284 327 13,100  Level Chicago Center
07:44PM 41.8983 -88.6942 263° West 286 329 13,100 240 Level Chicago Center
07:45PM 41.8881 -88.8031 263° West 296 341 13,700 1,080 Climbing Chicago Center
07:46PM 41.8806 -88.9511 266° West 332 382 15,400 1,980 Climbing Chicago Center
07:48PM 41.8878 -89.2167 272° West 351 404 20,000 1,080 Climbing Chicago Center
08:02PM 41.5725 -91.3228 259° West 406 467 34,000 900 Climbing Chicago Center
08:03PM 41.5458 -91.4686 256° West 406 467 34,000  Level Chicago Center
08:04PM 41.5194 -91.6125 262° West 403 464 34,000  Level Chicago Center
08:06PM 41.5058 -91.7625 263° West 409 471 34,000  Level Chicago Center
08:07PM 41.4878 -91.9417 262° West 409 471 34,000  Level Chicago Center
08:08PM 41.4736 -92.0903 263° West 408 470 34,000  Level Chicago Center
08:09PM 41.4589 -92.2419 263° West 413 475 34,000  Level Chicago Center
08:10PM 41.4417 -92.4097 262° West 414 476 34,000  Level Chicago Center
08:11PM 41.4275 -92.5611 263° West 416 479 34,000  Level Chicago Center
08:12PM 41.4117 -92.7117 262° West 416 479 34,000  Level Chicago Center
08:12PM 41.4050 -92.7736 262° West 416 479 34,000  Level Minneapolis Center
08:13PM 41.3897 -92.9253 262° West 418 481 34,000  Level Minneapolis Center
08:14PM 41.3731 -93.0775 262° West 419 482 34,000  Level Minneapolis Center
08:15PM 41.3575 -93.2294 262° West 420 483 34,000  Level Minneapolis Center
08:16PM 41.3406 -93.3831 262° West 422 486 34,000  Level Minneapolis Center
08:17PM 41.3217 -93.5642 262° West 416 479 34,000  Level Minneapolis Center
08:18PM 41.3047 -93.7156 262° West 416 479 34,000  Level Minneapolis Center
08:19PM 41.2889 -93.8672 262° West 419 482 34,000  Level Minneapolis Center
08:20PM 41.2714 -94.0197 261° West 421 484 34,000  Level Minneapolis Center
08:21PM 41.2506 -94.2028 261° West 423 487 34,000  Level Minneapolis Center
08:22PM 41.2317 -94.3533 261° West 420 483 34,000  Level Minneapolis Center
08:23PM 41.2128 -94.5069 261° West 420 483 34,000  Level Minneapolis Center
08:24PM 41.1961 -94.6614 262° West 423 487 34,000  Level Minneapolis Center
08:25PM 41.1772 -94.8153 261° West 423 487 34,000  Level Minneapolis Center
08:26PM 41.1581 -94.9686 261° West 422 486 34,000  Level Minneapolis Center
08:28PM 41.1350 -95.1517 261° West 421 484 34,000  Level Minneapolis Center
08:29PM 41.1150 -95.3067 260° West 424 488 34,000  Level Minneapolis Center
08:30PM 41.0947 -95.4608 260° West 425 489 34,000  Level Minneapolis Center
08:31PM 41.0744 -95.6161 260° West 425 489 34,000  Level Minneapolis Center
08:32PM 41.0536 -95.7722 260° West 426 490 34,000  Level Minneapolis Center
08:33PM 41.0322 -95.9292 260° West 428 493 34,000  Level Minneapolis Center
08:34PM 41.0122 -96.0867 260° West 429 494 34,000  Level Minneapolis Center
08:35PM 40.9925 -96.2422 261° West 427 491 34,000  Level Minneapolis Center
08:36PM 40.9661 -96.4283 259° West 427 491 34,000  Level Minneapolis Center
08:37PM 40.9456 -96.5814 260° West 424 488 34,000  Level Minneapolis Center
08:38PM 40.9228 -96.7369 259° West 427 491 34,000  Level Minneapolis Center
08:39PM 40.8833 -96.8853 251° West 427 491 34,000  Level Minneapolis Center
08:40PM 40.8400 -97.0339 249° West 431 496 34,000  Level Minneapolis Center
08:41PM 40.7972 -97.1808 249° West 431 496 34,000  Level Minneapolis Center
08:42PM 40.7556 -97.3261 249° West 426 490 34,000  Level Minneapolis Center
08:43PM 40.7036 -97.5067 249° West 428 493 34,000  Level Minneapolis Center
08:44PM 40.6619 -97.6533 250° West 427 491 34,000  Level Minneapolis Center
08:45PM 40.6186 -97.7986 249° West 426 490 34,000  Level Minneapolis Center
08:46PM 40.5758 -97.9428 249° West 424 488 34,000  Level Minneapolis Center
08:47PM 40.5336 -98.0875 249° West 422 486 34,000  Level Minneapolis Center
08:48PM 40.4900 -98.2314 248° West 422 486 34,000  Level Minneapolis Center
08:49PM 40.4478 -98.3761 249° West 423 487 34,000  Level Minneapolis Center
08:50PM 40.4039 -98.5208 248° West 424 488 34,000  Level Minneapolis Center
08:51PM 40.3517 -98.6922 247° West 421 484 34,000  Level Minneapolis Center
08:52PM 40.3530 -98.6799 247° West  Level FlightAware Approximate
08:52PM 40.3081 -98.8331 248° West 418 481 34,000  Level Minneapolis Center
08:53PM 40.2656 -98.9731 248° West 414 476 34,000  Level Minneapolis Center
08:54PM 40.2231 -99.1131 248° West 413 475 34,000  Level Minneapolis Center
08:55PM 40.1792 -99.2525 248° West 413 475 34,100  Climbing Minneapolis Center
08:56PM 40.1367 -99.3919 248° West 412 474 34,000 -120 Descending Minneapolis Center
08:57PM 40.0933 -99.5297 248° West 411 473 33,900  Descending Minneapolis Center
08:59PM 40.0411 -99.6967 248° West 412 474 34,000  Climbing Minneapolis Center
09:00PM 39.9961 -99.8364 247° West 416 479 34,000  Level Minneapolis Center
09:01PM 39.9528 -99.9769 248° West 417 480 34,000  Level Minneapolis Center
09:02PM 39.9092 -100.1161 248° West 416 479 34,000  Level Minneapolis Center
09:03PM 39.8642 -100.2506 246° West 411 473 34,000  Level Denver Center
09:04PM 39.8408 -100.4214 260° West 407 468 34,000  Level Denver Center
09:05PM 39.8228 -100.5628 261° West 410 472 34,000  Level Denver Center
09:06PM 39.8025 -100.7269 261° West 415 478 34,000  Level Denver Center
09:07PM 39.7864 -100.8667 262° West 410 472 34,000  Level Denver Center
09:08PM 39.7694 -101.0061 261° West 407 468 34,000  Level Denver Center
09:09PM 39.7186 -101.1619 247° West 416 479 34,000  Level Denver Center
09:10PM 39.6692 -101.2917 244° Southwest 418 481 34,000  Level Denver Center
09:11PM 39.6200 -101.4225 244° Southwest 420 483 34,000  Level Denver Center
09:12PM 39.5622 -101.5700 243° Southwest 412 474 34,000  Level Denver Center
09:13PM 39.5050 -101.7200 244° Southwest 415 478 34,000  Level Denver Center
09:14PM 39.4764 -101.8539 255° West 411 473 34,000  Level Denver Center
09:15PM 39.4542 -102.0164 260° West 410 472 34,000  Level Denver Center
09:16PM 39.4347 -102.1572 260° West 416 479 34,000  Level Denver Center
09:17PM 39.4164 -102.2989 261° West 417 480 34,000  Level Denver Center
09:18PM 39.3978 -102.4506 261° West 418 481 34,000  Level Denver Center
09:19PM 39.3817 -102.5975 262° West 415 478 34,000  Level Denver Center
09:20PM 39.3483 -102.7703 256° West 417 480 34,000  Level Denver Center
09:21PM 39.2936 -102.9017 242° Southwest 417 480 34,000  Level Denver Center
09:22PM 39.2578 -103.0411 252° West 412 474 34,000 180 Level Denver Center
09:23PM 39.2000 -103.1733 241° Southwest 422 486 34,400 720 Climbing Denver Center
09:24PM 39.1417 -103.3008 239° Southwest 416 479 35,500 720 Climbing Denver Center
09:25PM 39.0828 -103.4283 239° Southwest 414 476 36,000 240 Climbing Denver Center
09:26PM 39.0233 -103.5564 239° Southwest 415 478 36,000  Level Denver Center
09:27PM 38.9522 -103.7089 239° Southwest 415 478 36,000  Level Denver Center
09:28PM 38.8928 -103.8342 239° Southwest 412 474 36,000  Level Denver Center
09:30PM 38.9196 -103.9737 284° West  Level FlightAware Approximate
09:30PM 38.8333 -103.9603 284° West 412 474 36,000  Level Denver Center
09:32PM 38.6992 -104.2433 239° Southwest 425 489 36,000  Level Denver Center
09:33PM 38.6358 -104.3758 239° Southwest 433 498 36,100  Climbing Denver Center
09:34PM 38.5722 -104.5078 238° Southwest 434 499 36,000 -60 Descending Denver Center
09:35PM 38.4967 -104.6653 239° Southwest 434 499 36,000  Level Denver Center
09:36PM 38.4331 -104.7975 238° Southwest 436 502 36,000  Level Denver Center
09:37PM 38.3692 -104.9286 238° Southwest 435 501 36,000  Level Denver Center
09:38PM 38.3042 -105.0614 238° Southwest 433 498 36,000  Level Denver Center
09:39PM 38.2344 -105.2039 238° Southwest 428 493 36,000  Level Denver Center
09:40PM 38.1750 -105.3258 238° Southwest 426 490 36,000  Level Denver Center
09:41PM 38.1150 -105.4472 238° Southwest 424 488 36,000  Level Denver Center
09:42PM 38.0447 -105.5878 238° Southwest 424 488 36,000  Level Denver Center
09:43PM 37.9861 -105.7083 238° Southwest 422 486 36,000  Level Denver Center
09:44PM 37.9139 -105.8489 237° Southwest 424 488 36,000  Level Denver Center
09:45PM 37.8547 -105.9681 238° Southwest 422 486 36,000  Level Denver Center
09:46PM 37.7839 -106.1089 238° Southwest 424 488 36,000  Level Denver Center
09:47PM 37.7225 -106.2314 238° Southwest 422 486 36,000  Level Denver Center
09:48PM 37.6506 -106.3697 237° Southwest 422 486 36,000  Level Denver Center
09:49PM 37.5911 -106.4886 238° Southwest 419 482 36,000  Level Denver Center
09:50PM 37.5297 -106.6067 237° Southwest 421 484 36,000  Level Denver Center
09:51PM 37.4606 -106.7447 238° Southwest 417 480 36,000  Level Denver Center
09:52PM 37.3983 -106.8614 236° Southwest 419 482 36,000  Level Denver Center
09:53PM 37.3283 -106.9975 237° Southwest 415 478 36,000  Level Denver Center
09:54PM 37.2675 -107.1139 237° Southwest 415 478 36,000  Level Denver Center
09:56PM 37.1969 -107.2508 237° Southwest 419 482 36,000  Level Denver Center
09:57PM 37.1358 -107.3678 237° Southwest 421 484 36,000  Level Denver Center
09:58PM 37.0650 -107.5022 237° Southwest 417 480 36,000  Level Denver Center
09:59PM 37.0042 -107.6189 237° Southwest 417 480 36,000  Level Denver Center
10:00PM 36.9317 -107.7539 236° Southwest 419 482 36,000  Level Denver Center
10:01PM 36.8714 -107.8703 237° Southwest 416 479 36,000  Level Denver Center
10:02PM 36.7986 -108.0047 236° Southwest 419 482 36,000  Level Denver Center
10:03PM 36.7369 -108.1203 236° Southwest 418 481 36,000  Level Denver Center
10:04PM 36.6858 -108.2417 242° Southwest 414 476 36,000  Level Denver Center
10:05PM 36.6247 -108.3814 241° Southwest 412 474 36,000  Level Denver Center
10:06PM 36.5717 -108.5019 241° Southwest 415 478 36,000  Level Denver Center
10:07PM 36.5097 -108.6419 241° Southwest 416 479 36,000  Level Denver Center
10:08PM 36.4572 -108.7606 241° Southwest 411 473 36,000  Level Denver Center
10:09PM 36.4058 -108.8789 242° Southwest 411 473 36,000  Level Denver Center
10:10PM 36.3431 -109.0175 241° Southwest 414 476 36,000  Level Denver Center
10:11PM 36.2800 -109.1561 241° Southwest 417 480 36,000  Level Denver Center
10:12PM 36.2256 -109.2747 240° Southwest 417 480 36,000  Level Denver Center
10:13PM 36.1622 -109.4139 241° Southwest 418 481 36,000  Level Denver Center
10:14PM 36.1078 -109.5328 240° Southwest 417 480 36,000  Level Denver Center
10:15PM 36.0808 -109.5925 241° Southwest 417 480 36,000  Level Albuquerque Center
10:15PM 36.0436 -109.6717 240° Southwest 418 481 36,000  Level Denver Center
10:16PM 35.9892 -109.7908 241° Southwest 418 481 36,000  Level Denver Center
10:17PM 35.9161 -109.9483 240° Southwest 415 478 36,000  Level Denver Center
10:18PM 35.8525 -110.0864 240° Southwest 415 478 36,000  Level Denver Center
10:19PM 35.8047 -110.1903 240° Southwest 414 476 36,000  Level Denver Center
10:20PM 35.7350 -110.3389 240° Southwest 417 480 36,000  Level Denver Center
10:22PM 35.6769 -110.4622 240° Southwest 416 479 36,000  Level Denver Center
10:23PM 35.6186 -110.5858 240° Southwest 417 480 36,000  Level Denver Center
10:23PM 35.5894 -110.6450 239° Southwest 421 484 36,000  Level Los Angeles Center
10:24PM 35.5439 -110.7361 238° Southwest 421 484 36,000  Level Albuquerque Center
10:25PM 35.4875 -110.8550 240° Southwest 422 486 36,000  Level Albuquerque Center
10:26PM 35.4325 -110.9739 240° Southwest 420 483 36,000  Level Albuquerque Center
10:27PM 35.3656 -111.1117 239° Southwest 421 484 36,000  Level Albuquerque Center
10:28PM 35.3103 -111.2350 241° Southwest 420 483 36,000  Level Albuquerque Center
10:29PM 35.2469 -111.3675 240° Southwest 423 487 36,000  Level Albuquerque Center
10:30PM 35.1894 -111.4872 240° Southwest 415 478 36,000  Level Albuquerque Center
10:31PM 35.1311 -111.6078 239° Southwest 413 475 36,000  Level Albuquerque Center
10:32PM 35.0711 -111.7283 239° Southwest 416 479 36,000  Level Albuquerque Center
10:33PM 35.0169 -111.8411 240° Southwest 416 479 36,000  Level Albuquerque Center
10:34PM 34.9756 -111.9700 249° West 410 472 36,000  Level Albuquerque Center
10:35PM 34.9269 -112.1250 249° West 408 470 36,000  Level Albuquerque Center
10:36PM 34.8872 -112.2528 249° West 406 467 36,000  Level Albuquerque Center
10:37PM 34.8483 -112.3806 250° West 404 465 36,000  Level Albuquerque Center
10:38PM 34.8081 -112.5078 249° West 404 465 36,000  Level Albuquerque Center
10:39PM 34.7681 -112.6347 249° West 403 464 36,000  Level Albuquerque Center
10:40PM 34.7281 -112.7614 249° West 402 463 36,000  Level Albuquerque Center
10:41PM 34.6886 -112.8881 249° West 402 463 36,000  Level Albuquerque Center
10:42PM 34.6478 -113.0150 249° West 404 465 36,000  Level Albuquerque Center
10:43PM 34.6078 -113.1411 249° West 403 464 36,000  Level Albuquerque Center
10:44PM 34.5672 -113.2667 249° West 402 463 36,000 -60 Level Albuquerque Center
10:45PM 34.5181 -113.4183 249° West 403 464 35,900 -960 Descending Albuquerque Center
10:46PM 34.4772 -113.5444 249° West 403 464 34,100 -960 Descending Albuquerque Center
10:47PM 34.4383 -113.6625 248° West 409 471 34,000 -60 Descending Albuquerque Center
10:48PM 34.3958 -113.7931 249° West 414 476 34,000  Level Albuquerque Center
10:49PM 34.3533 -113.9219 248° West 415 478 34,000 -180 Level Albuquerque Center
10:50PM 34.3017 -114.0767 248° West 413 475 33,700 -660 Descending Albuquerque Center
10:51PM 34.2611 -114.2042 249° West 409 471 32,700 -1,020 Descending Albuquerque Center
10:52PM 34.2111 -114.3289 244° Southwest 410 472 31,700 -900 Descending Albuquerque Center
10:53PM 34.1878 -114.3856 244° Southwest 415 478 31,300 -960 Descending Los Angeles Center
10:54PM 34.1350 -114.5106 243° Southwest 418 481 30,200 -720 Descending Los Angeles Center
10:55PM 34.0714 -114.6611 243° Southwest 420 483 29,900 -120 Descending Los Angeles Center
10:56PM 34.0169 -114.7867 242° Southwest 425 489 30,000  Climbing Los Angeles Center
10:57PM 33.9628 -114.9117 242° Southwest 422 486 30,000 -60 Level Los Angeles Center
10:58PM 33.9111 -115.0353 243° Southwest 416 479 29,900 -480 Descending Los Angeles Center
10:59PM 33.8575 -115.1592 243° Southwest 418 481 29,100 -1,020 Descending Los Angeles Center
11:00PM 33.8053 -115.2819 243° Southwest 414 476 27,900 -1,200 Descending Los Angeles Center
11:01PM 33.7522 -115.4033 242° Southwest 413 475 26,700 -1,260 Descending Los Angeles Center
11:02PM 33.6881 -115.5508 242° Southwest 417 480 25,300 -1,320 Descending Los Angeles Center
11:03PM 33.6361 -115.6722 243° Southwest 411 473 24,100 -960 Descending Los Angeles Center
11:04PM 33.5811 -115.7906 241° Southwest 407 468 23,400 -1,020 Descending Los Angeles Center
11:05PM 33.4986 -115.8833 223° Southwest 406 467 22,000 -1,380 Descending Los Angeles Center
11:06PM 33.4181 -115.9753 224° Southwest 401 461 20,600 -1,620 Descending Los Angeles Center
11:07PM 33.3397 -116.0650 224° Southwest 394 453 18,700 -2,040 Descending Los Angeles Center
11:08PM 33.2631 -116.1525 224° Southwest 384 442 16,500 -2,160 Descending Los Angeles Center
11:09PM 33.1706 -116.2569 223° Southwest 382 440 14,300 -1,860 Descending Los Angeles Center
11:11PM 33.0964 -116.3419 224° Southwest 377 434 12,400 -1,020 Descending Los Angeles Center
11:12PM 33.0161 -116.4317 223° Southwest 354 407 12,000 -540 Descending Los Angeles Center
11:13PM 32.9600 -116.5106 230° Southwest 322 371 11,400 -1,080 Descending Los Angeles Center
11:14PM 32.9083 -116.5886 232° Southwest 304 350 9,800 -1,620 Descending Los Angeles Center
11:15PM 32.8475 -116.6781 231° Southwest 297 342 8,100 -1,560 Descending Los Angeles Center
11:16PM 32.7983 -116.7497 231° Southwest 288 331 6,600 -1,440 Descending Los Angeles Center
11:17PM 32.7492 -116.8203 230° Southwest 280 322 5,200 -1,200 Descending Los Angeles Center
11:18PM 32.7031 -116.8894 232° Southwest 273 314 4,200 -840 Descending Los Angeles Center
11:18PM 32.6833 -116.9333 242° Southwest 257 296 4,000 -660 Descending Southern California TRACON
11:19PM 32.6833 -117.0000 270° West 209 241 3,300 -720 Descending Southern California TRACON